createdAt,value
2023-03-05T14:59:18.233Z,626.4
2023-03-05T15:02:20.432Z,626.3
2023-03-05T15:09:20.334Z,626.1
2023-03-05T15:19:19.918Z,626.4
2023-03-05T15:21:18.999Z,626.3
2023-03-05T15:24:19.540Z,626.2
2023-03-05T15:31:19.396Z,625.7
2023-03-05T15:32:11.052Z,625.5
2023-03-05T15:33:11.512Z,625.4
2023-03-05T15:34:11.185Z,625.4
2023-03-05T15:35:11.627Z,625.3
2023-03-05T15:37:11.847Z,625.3
2023-03-05T15:38:11.391Z,625.5
2023-03-05T15:41:11.537Z,625.5
2023-03-05T15:42:10.972Z,625.1
2023-03-05T15:43:11.288Z,625
2023-03-05T15:44:10.959Z,625.1
2023-03-05T15:45:10.948Z,625.2
2023-03-05T15:46:10.973Z,625.2
2023-03-05T15:47:11.947Z,625.3
2023-03-05T15:48:11.014Z,625.3
2023-03-05T15:50:11.737Z,625.1
2023-03-05T15:51:10.967Z,625
2023-03-05T15:52:10.960Z,625
2023-03-05T15:53:10.958Z,624.9
2023-03-05T15:54:10.958Z,624.9
2023-03-05T15:55:10.967Z,624.9
2023-03-05T15:56:11.034Z,624.9
2023-03-05T15:58:11.336Z,625
2023-03-05T15:59:11.112Z,625
2023-03-05T16:00:10.955Z,625
2023-03-05T16:01:10.957Z,625.1
2023-03-05T16:03:11.035Z,625
2023-03-05T16:04:10.955Z,624.9
2023-03-05T16:05:11.449Z,625
2023-03-05T16:06:10.954Z,625
2023-03-05T16:07:11.314Z,624.9
2023-03-05T16:08:11.059Z,624.8
2023-03-05T16:09:11.394Z,624.7
2023-03-05T16:11:11.722Z,624.8
2023-03-05T16:12:09.831Z,624.9
2023-03-05T16:13:10.961Z,624.8
2023-03-05T16:14:11.454Z,624.8
2023-03-05T16:15:10.965Z,624.8
2023-03-05T16:17:10.965Z,625
2023-03-05T16:18:10.961Z,625.1
2023-03-05T16:19:11.224Z,625.1
2023-03-05T16:20:11.658Z,625.1
2023-03-05T16:21:10.965Z,625.1
2023-03-05T16:22:11.491Z,625.2
2023-03-05T16:23:11.251Z,625.2
2023-03-05T16:24:11.018Z,624.8
2023-03-05T16:25:11.495Z,624.7
2023-03-05T16:26:10.982Z,624.7
2023-03-05T16:27:11.610Z,624.7
2023-03-05T16:28:11.630Z,624.7
2023-03-05T16:30:11.366Z,624.5
2023-03-05T16:31:11.361Z,624.3
2023-03-05T16:32:10.106Z,624.2
2023-03-05T16:33:10.966Z,624.1
2023-03-05T16:34:11.100Z,624.2
2023-03-05T16:35:11.535Z,623.9
2023-03-05T16:36:11.592Z,624
2023-03-05T16:37:11.618Z,624.3
2023-03-05T16:38:10.958Z,624.3
2023-03-05T16:40:10.959Z,624.4
2023-03-05T16:41:10.959Z,624.4
2023-03-05T16:42:11.533Z,624.5
2023-03-05T16:43:09.842Z,624.4
2023-03-05T16:46:11.649Z,624.2
2023-03-05T16:47:10.960Z,624.3
2023-03-05T16:48:10.963Z,624.3
2023-03-05T16:49:10.962Z,624.4
2023-03-05T16:50:11.550Z,624.4
2023-03-05T16:51:11.303Z,624.3
2023-03-05T16:53:10.956Z,624.4
2023-03-05T16:54:11.681Z,624.3
2023-03-05T16:55:10.958Z,624.4
2023-03-05T16:56:09.900Z,624.3
2023-03-05T16:57:11.212Z,624.3
2023-03-05T16:58:11.808Z,624.3
2023-03-05T16:59:11.628Z,624.3
2023-03-05T17:01:10.974Z,624.3
2023-03-05T17:02:10.980Z,624.2
2023-03-05T17:03:10.971Z,624.3
2023-03-05T17:04:11.570Z,624.3
2023-03-05T17:05:10.953Z,624.3
2023-03-05T17:06:09.834Z,624.3
2023-03-05T17:07:10.976Z,624.3
2023-03-05T17:08:10.953Z,624.1
2023-03-05T17:09:10.960Z,624.2
2023-03-05T17:10:11.488Z,624.1
2023-03-05T17:12:11.625Z,624.1
2023-03-05T17:13:11.570Z,624.1
2023-03-05T17:14:10.960Z,624.1
2023-03-05T17:15:11.158Z,623.9
2023-03-05T17:16:11.548Z,623.9
2023-03-05T17:17:11.046Z,623.8
2023-03-05T17:18:11.045Z,624
2023-03-05T17:19:10.952Z,624.1
2023-03-05T17:20:10.960Z,624.1
2023-03-05T17:21:10.959Z,624
2023-03-05T17:22:11.773Z,623.9
2023-03-05T17:23:10.953Z,624
2023-03-05T17:24:10.953Z,623.9
2023-03-05T17:25:11.676Z,624
2023-03-05T17:26:11.255Z,624
2023-03-05T17:27:09.838Z,623.8
2023-03-05T17:29:11.326Z,623.9
2023-03-05T17:30:11.302Z,623.9
2023-03-05T17:31:11.557Z,624
2023-03-05T17:33:10.998Z,624
2023-03-05T17:34:12.254Z,624
2023-03-05T17:35:10.956Z,624.1
2023-03-05T17:36:11.797Z,624.1
2023-03-05T17:37:11.489Z,624.1
2023-03-05T17:38:11.733Z,624
2023-03-05T17:39:10.953Z,624.1
2023-03-05T17:40:10.961Z,624.1
2023-03-05T17:41:11.506Z,624
2023-03-05T17:42:11.617Z,624
2023-03-05T17:43:11.339Z,624
2023-03-05T17:44:11.459Z,624
2023-03-05T17:45:11.213Z,624
2023-03-05T17:46:11.054Z,624
2023-03-05T17:47:11.276Z,624
2023-03-05T17:48:11.004Z,623.8
2023-03-05T17:51:09.828Z,624
2023-03-05T17:52:11.747Z,624.1
2023-03-05T17:53:11.140Z,624
2023-03-05T17:54:10.961Z,623.8
2023-03-05T17:55:10.965Z,623.8
2023-03-05T17:56:10.958Z,623.7
2023-03-05T17:57:11.521Z,623.8
2023-03-05T17:59:10.958Z,623.8
2023-03-05T18:00:11.357Z,623.7
2023-03-05T18:01:11.238Z,623.6
2023-03-05T18:02:09.854Z,623.7
2023-03-05T18:03:11.513Z,623.7
2023-03-05T18:04:11.263Z,623.8
2023-03-05T18:05:11.484Z,623.8
2023-03-05T18:06:11.763Z,623.8
2023-03-05T18:07:11.611Z,623.8
2023-03-05T18:08:10.962Z,623.7
2023-03-05T18:09:10.959Z,623.7
2023-03-05T18:13:11.457Z,623.3
2023-03-05T18:14:10.974Z,623.2
2023-03-05T18:15:11.874Z,623.3
2023-03-05T18:16:10.960Z,623.2
2023-03-05T18:17:11.747Z,623.2
2023-03-05T18:18:11.341Z,623.2
2023-03-05T18:19:10.957Z,623.2
2023-03-05T18:20:11.478Z,623.2
2023-03-05T18:21:10.958Z,623.1
2023-03-05T18:22:10.983Z,623.2
2023-03-05T18:24:11.741Z,623.2
2023-03-05T18:25:10.961Z,623.2
2023-03-05T18:26:10.967Z,623.2
2023-03-05T18:27:10.958Z,623.2
2023-03-05T18:28:11.480Z,623.2
2023-03-05T18:29:11.436Z,623.2
2023-03-05T18:30:10.955Z,623.1
2023-03-05T18:31:11.564Z,623.1
2023-03-05T18:32:11.065Z,623
2023-03-05T18:33:11.680Z,623.1
2023-03-05T18:34:11.678Z,623.2
2023-03-05T18:35:11.701Z,623.2
2023-03-05T18:36:11.765Z,623.2
2023-03-05T18:37:10.952Z,623.2
2023-03-05T18:38:10.948Z,623.2
2023-03-05T18:39:10.977Z,623.2
2023-03-05T18:40:10.945Z,623.2
2023-03-05T18:41:11.687Z,623.1
2023-03-05T18:42:10.956Z,623.1
2023-03-05T18:43:10.956Z,623.1
2023-03-05T18:45:11.421Z,623.1
2023-03-05T18:46:11.023Z,623.1
2023-03-05T18:47:11.620Z,623.1
2023-03-05T18:48:11.641Z,622.8
2023-03-05T18:49:11.585Z,623
2023-03-05T18:50:10.950Z,623
2023-03-05T18:51:10.954Z,623
2023-03-05T18:52:11.593Z,623
2023-03-05T18:53:10.957Z,623.1
2023-03-05T18:54:10.946Z,623.1
2023-03-05T18:56:11.229Z,623
2023-03-05T18:57:10.968Z,623
2023-03-05T18:58:11.425Z,622.9
2023-03-05T19:00:12.364Z,622.7
2023-03-05T19:01:11.134Z,622.8
2023-03-05T19:02:09.823Z,622.6
2023-03-05T19:03:10.949Z,622.7
2023-03-05T19:07:10.974Z,622.8
2023-03-05T19:08:10.949Z,622.9
2023-03-05T19:09:11.904Z,622.8
2023-03-05T19:10:11.664Z,622.7
2023-03-05T19:11:10.969Z,622.6
2023-03-05T19:12:11.634Z,622.5
2023-03-05T19:13:11.980Z,622.6
2023-03-05T19:15:11.121Z,623
2023-03-05T19:18:11.404Z,623
2023-03-05T19:19:11.614Z,622.8
2023-03-05T19:20:11.777Z,623
2023-03-05T19:21:10.951Z,623
2023-03-05T19:22:11.361Z,622.8
2023-03-05T19:23:11.542Z,622.9
2023-03-05T19:24:11.035Z,622.8
2023-03-05T19:25:10.964Z,623
2023-03-05T19:26:10.957Z,622.8
2023-03-05T19:27:11.017Z,622.6
2023-03-05T19:28:10.973Z,622.8
2023-03-05T19:29:10.951Z,622.7
2023-03-05T19:30:10.960Z,622.8
2023-03-05T19:31:11.350Z,622.9
2023-03-05T19:32:11.760Z,623
2023-03-05T19:34:10.951Z,623
2023-03-05T19:35:11.006Z,623
2023-03-05T19:36:11.560Z,622.9
2023-03-05T19:37:10.960Z,622.9
2023-03-05T19:38:09.844Z,622.9
2023-03-05T19:39:10.956Z,622.8
2023-03-05T19:40:10.948Z,622.8
2023-03-05T19:41:10.951Z,622.9
2023-03-05T19:42:11.094Z,622.9
2023-03-05T19:43:11.394Z,623
2023-03-05T19:44:11.668Z,623.1
2023-03-05T19:45:10.978Z,622.9
2023-03-05T19:46:11.142Z,622.9
2023-03-05T19:47:10.951Z,623
2023-03-05T19:48:11.712Z,623.1
2023-03-05T19:49:10.984Z,623.2
2023-03-05T19:50:10.951Z,623.1
2023-03-05T19:51:11.528Z,623.1
2023-03-05T19:52:10.952Z,623.2
2023-03-05T19:53:10.955Z,623.2
2023-03-05T19:55:11.830Z,623.2
2023-03-05T19:56:10.944Z,623
2023-03-05T19:57:11.696Z,622.9
2023-03-05T19:58:10.944Z,622.8
2023-03-05T19:59:11.091Z,622.9
2023-03-05T20:00:10.949Z,622.7
2023-03-05T20:01:10.958Z,622.7
2023-03-05T20:03:10.982Z,622.7
2023-03-05T20:04:11.572Z,622.7
2023-03-05T20:05:11.472Z,622.5
2023-03-05T20:06:11.721Z,622.4
2023-03-05T20:07:11.187Z,622.6
2023-03-05T20:08:11.523Z,622.7
2023-03-05T20:09:11.134Z,622.7
2023-03-05T20:10:10.989Z,622.6
2023-03-05T20:12:11.110Z,622.7
2023-03-05T20:13:10.934Z,622.7
2023-03-05T20:14:10.942Z,622.8
2023-03-05T20:15:11.393Z,622.7
2023-03-05T20:16:11.103Z,622.7
2023-03-05T20:17:10.980Z,622.7
2023-03-05T20:18:12.151Z,622.6
2023-03-05T20:19:11.781Z,622.4
2023-03-05T20:20:10.962Z,622.6
2023-03-05T20:21:11.113Z,622.5
2023-03-05T20:23:11.212Z,622.5
2023-03-05T20:24:11.230Z,622.4
2023-03-05T20:25:11.162Z,622.4
2023-03-05T20:26:11.241Z,622.4
2023-03-05T20:28:11.834Z,622.5
2023-03-05T20:29:10.946Z,622.5
2023-03-05T20:30:10.956Z,622.5
2023-03-05T20:31:10.967Z,622.6
2023-03-05T20:32:11.120Z,622.6
2023-03-05T20:33:09.831Z,622.6
2023-03-05T20:34:10.958Z,622.4
2023-03-05T20:35:10.962Z,622.5
2023-03-05T20:36:10.957Z,622.4
2023-03-05T20:37:11.266Z,622.4
2023-03-05T20:38:13.134Z,622.5
2023-03-05T20:39:10.946Z,622.3
2023-03-05T20:40:10.947Z,622.4
2023-03-05T20:41:11.511Z,622.1
2023-03-05T20:42:11.090Z,622.4
2023-03-05T20:43:09.829Z,622.5
2023-03-05T20:44:09.824Z,622.6
2023-03-05T20:45:10.947Z,622.5
2023-03-05T20:46:11.359Z,622.3
2023-03-05T20:47:11.568Z,622.4
2023-03-05T20:48:10.968Z,622.3
2023-03-05T20:49:10.952Z,622.5
2023-03-05T20:50:10.955Z,622.5
2023-03-05T20:51:10.950Z,622.3
2023-03-05T20:52:11.286Z,622.1
2023-03-05T20:53:10.976Z,622.2
2023-03-05T20:54:10.965Z,622.4
2023-03-05T20:55:09.836Z,622.5
2023-03-05T20:56:11.475Z,622.6
2023-03-05T20:58:10.966Z,622.5
2023-03-05T20:59:11.686Z,622.6
2023-03-05T21:00:10.956Z,622.6
2023-03-05T21:01:11.536Z,622.7
2023-03-05T21:02:11.540Z,622.7
2023-03-05T21:03:12.115Z,622.7
2023-03-05T21:04:10.960Z,622.8
2023-03-05T21:06:11.138Z,622.6
2023-03-05T21:07:11.744Z,622.6
2023-03-05T21:09:11.155Z,622.5
2023-03-05T21:10:11.228Z,622.4
2023-03-05T21:11:11.579Z,622.3
2023-03-05T21:12:11.532Z,622.4
2023-03-05T21:13:10.960Z,622.3
2023-03-05T21:14:11.302Z,622.2
2023-03-05T21:15:10.959Z,622.2
2023-03-05T21:17:10.958Z,622.2
2023-03-05T21:18:12.033Z,621.8
2023-03-05T21:19:11.462Z,622
2023-03-05T21:20:10.954Z,622
2023-03-05T21:21:10.953Z,622.2
2023-03-05T21:22:11.904Z,622.2
2023-03-05T21:23:11.262Z,622.1
2023-03-05T21:24:11.011Z,621.9
2023-03-05T21:25:11.286Z,622
2023-03-05T21:28:11.706Z,622
2023-03-05T21:30:11.321Z,622.2
2023-03-05T21:31:10.956Z,622.2
2023-03-05T21:32:09.831Z,621.9
2023-03-05T21:33:10.953Z,621.9
2023-03-05T21:34:11.131Z,622
2023-03-05T21:35:11.854Z,621.8
2023-03-05T21:36:10.937Z,621.7
2023-03-05T21:37:09.817Z,621.8
2023-03-05T21:38:10.951Z,621.9
2023-03-05T21:39:11.338Z,622.1
2023-03-05T21:40:10.975Z,622.1
2023-03-05T21:41:10.946Z,621.8
2023-03-05T21:42:10.936Z,621.9
2023-03-05T21:43:11.310Z,622
2023-03-05T21:44:11.866Z,621.9
2023-03-05T21:45:10.952Z,621.8
2023-03-05T21:46:11.391Z,621.7
2023-03-05T21:47:10.951Z,621.8
2023-03-05T21:49:10.943Z,621.7
2023-03-05T21:50:11.758Z,621.8
2023-03-05T21:51:10.950Z,621.8
2023-03-05T21:52:10.951Z,621.9
2023-03-05T21:53:11.000Z,621.9
2023-03-05T21:54:11.254Z,621.6
2023-03-05T21:55:10.946Z,621.8
2023-03-05T21:56:10.965Z,621.7
2023-03-05T21:57:11.535Z,621.7
2023-03-05T21:58:10.947Z,621.7
2023-03-05T22:00:10.956Z,621.9
2023-03-05T22:01:10.983Z,622
2023-03-05T22:02:10.995Z,622.1
2023-03-05T22:03:11.404Z,621.9
2023-03-05T22:04:11.442Z,622.1
2023-03-05T22:05:11.302Z,621.9
2023-03-05T22:06:11.597Z,621.9
2023-03-05T22:07:11.595Z,621.8
2023-03-05T22:08:10.947Z,621.9
2023-03-05T22:10:10.951Z,621.5
2023-03-05T22:11:11.273Z,621.5
2023-03-05T22:12:10.945Z,621.5
2023-03-05T22:13:11.598Z,621.6
2023-03-05T22:14:11.240Z,621.7
2023-03-05T22:16:11.454Z,621.7
2023-03-05T22:17:10.940Z,621.8
2023-03-05T22:18:11.143Z,621.9
2023-03-05T22:19:09.824Z,621.7
2023-03-05T22:20:10.952Z,621.6
2023-03-05T22:21:10.931Z,621.6
2023-03-05T22:22:11.356Z,621.5
2023-03-05T22:23:11.553Z,621.5
2023-03-05T22:24:10.939Z,621.6
2023-03-05T22:25:10.930Z,621.6
2023-03-05T22:26:10.944Z,621.3
2023-03-05T22:27:10.935Z,621.4
2023-03-05T22:28:10.946Z,621.5
2023-03-05T22:29:11.042Z,621.6
2023-03-05T22:31:10.961Z,621.5
2023-03-05T22:32:11.378Z,621.5
2023-03-05T22:33:10.929Z,621.4
2023-03-05T22:34:11.539Z,621.5
2023-03-05T22:35:10.948Z,621.5
2023-03-05T22:36:11.308Z,621.5
2023-03-05T22:37:11.487Z,621.3
2023-03-05T22:38:11.460Z,621.3
2023-03-05T22:39:10.989Z,621.2
2023-03-05T22:40:11.345Z,621.3
2023-03-05T22:41:11.354Z,621.3
2023-03-05T22:42:11.086Z,621.3
2023-03-05T22:44:11.182Z,621.4
2023-03-05T22:45:10.935Z,621.4
2023-03-05T22:46:11.004Z,621.4
2023-03-05T22:47:10.943Z,621.3
2023-03-05T22:48:11.000Z,621.1
2023-03-05T22:49:10.957Z,621.3
2023-03-05T22:50:10.929Z,621.4
2023-03-05T22:53:09.814Z,621.6
2023-03-05T22:54:11.547Z,621.6
2023-03-05T22:55:10.923Z,621.6
2023-03-05T22:56:10.942Z,621.6
2023-03-05T22:57:11.371Z,621.8
2023-03-05T22:58:10.937Z,621.6
2023-03-05T22:59:11.689Z,621.8
2023-03-05T23:00:11.804Z,621.8
2023-03-05T23:01:11.457Z,621.8
2023-03-05T23:02:10.961Z,621.8
2023-03-05T23:05:10.941Z,621.4
2023-03-05T23:06:11.660Z,621.7
2023-03-05T23:07:10.941Z,621.7
2023-03-05T23:08:11.650Z,621.6
2023-03-05T23:09:10.948Z,621.6
2023-03-05T23:10:11.388Z,621.8
2023-03-05T23:11:10.948Z,621.7
2023-03-05T23:13:10.979Z,621.8
2023-03-05T23:15:11.565Z,621.9
2023-03-05T23:16:11.026Z,621.9
2023-03-05T23:17:11.722Z,621.6
2023-03-05T23:18:10.942Z,621.7
2023-03-05T23:19:10.954Z,621.8
2023-03-05T23:20:11.397Z,621.8
2023-03-05T23:21:10.945Z,621.8
2023-03-05T23:22:11.543Z,621.6
2023-03-05T23:23:11.795Z,621.4
2023-03-05T23:24:11.622Z,621.7
2023-03-05T23:26:10.993Z,621.6
2023-03-05T23:27:10.939Z,621.7
2023-03-05T23:28:10.947Z,621.8
2023-03-05T23:29:10.951Z,621.7
2023-03-05T23:30:11.472Z,621.7
2023-03-05T23:32:11.584Z,621.5
2023-03-05T23:33:11.517Z,621.6
2023-03-05T23:34:10.946Z,621.4
2023-03-05T23:35:11.738Z,621.5
2023-03-05T23:38:11.099Z,621.4
2023-03-05T23:39:11.478Z,621.5
2023-03-05T23:40:11.412Z,621.5
2023-03-05T23:41:11.074Z,621.2
2023-03-05T23:42:10.935Z,621.2
2023-03-05T23:43:10.935Z,621.5
2023-03-05T23:45:12.691Z,621.5
2023-03-05T23:46:11.139Z,621.6
2023-03-05T23:47:11.435Z,621.4
2023-03-05T23:48:10.939Z,621.3
2023-03-05T23:49:11.515Z,621.4
2023-03-05T23:50:10.986Z,621.5
2023-03-05T23:51:10.963Z,621.5
2023-03-05T23:53:10.980Z,621.5
2023-03-05T23:54:11.746Z,621.4
2023-03-05T23:55:10.943Z,621.5
2023-03-05T23:56:10.943Z,621.5
2023-03-05T23:58:09.823Z,621.5
